sensor_id;sensor_type;location;lat;lon;timestamp;pressure;altitude;pressure_sealevel;temperature;humidity
18275;BME280;19470;49.322;7.218;2022-07-18T00:00:44;99486.88;;;17.92;77.76
18275;BME280;19470;49.322;7.218;2022-07-18T00:03:12;99483.38;;;18.17;78.05
18275;BME280;19470;49.322;7.218;2022-07-18T00:05:38;99479.53;;;18.54;76.44
18275;BME280;19470;49.322;7.218;2022-07-18T00:08:05;99476.28;;;18.52;77.57
18275;BME280;19470;49.322;7.218;2022-07-18T00:10:31;99472.59;;;18.32;76.98
18275;BME280;19470;49.322;7.218;2022-07-18T00:12:59;99481.78;;;18.16;77.97
18275;BME280;19470;49.322;7.218;2022-07-18T00:15:26;99480.19;;;17.95;78.95
18275;BME280;19470;49.322;7.218;2022-07-18T00:17:52;99478.06;;;17.86;77.89
18275;BME280;19470;49.322;7.218;2022-07-18T00:20:20;99479.66;;;17.77;76.79
18275;BME280;19470;49.322;7.218;2022-07-18T00:22:47;99478.03;;;17.97;77.30
18275;BME280;19470;49.322;7.218;2022-07-18T00:25:13;99472.69;;;17.97;78.22
18275;BME280;19470;49.322;7.218;2022-07-18T00:27:40;99467.91;;;17.83;79.40
18275;BME280;19470;49.322;7.218;2022-07-18T00:30:07;99472.69;;;17.97;79.37
18275;BME280;19470;49.322;7.218;2022-07-18T00:32:34;99473.22;;;17.68;80.65
18275;BME280;19470;49.322;7.218;2022-07-18T00:35:01;99478.03;;;17.66;81.19
18275;BME280;19470;49.322;7.218;2022-07-18T00:37:28;99479.13;;;17.60;80.49
18275;BME280;19470;49.322;7.218;2022-07-18T00:39:55;99474.00;;;17.69;80.44
18275;BME280;19470;49.322;7.218;2022-07-18T00:42:21;99471.88;;;17.86;79.96
18275;BME280;19470;49.322;7.218;2022-07-18T00:44:52;99469.47;;;17.95;79.77
18275;BME280;19470;49.322;7.218;2022-07-18T00:47:19;99467.06;;;17.83;79.75
18275;BME280;19470;49.322;7.218;2022-07-18T00:49:45;99471.09;;;17.65;80.11
18275;BME280;19470;49.322;7.218;2022-07-18T00:52:12;99466.78;;;17.59;79.84
18275;BME280;19470;49.322;7.218;2022-07-18T00:54:40;99467.84;;;17.63;79.94
18275;BME280;19470;49.322;7.218;2022-07-18T00:57:07;99478.28;;;17.49;80.87
18275;BME280;19470;49.322;7.218;2022-07-18T00:59:34;99468.66;;;17.63;80.90
18275;BME280;19470;49.322;7.218;2022-07-18T01:02:18;99471.59;;;17.62;79.97
18275;BME280;19470;49.322;7.218;2022-07-18T01:04:44;99466.78;;;17.18;82.08
18275;BME280;19470;49.322;7.218;2022-07-18T01:07:14;99473.72;;;17.29;81.32
18275;BME280;19470;49.322;7.218;2022-07-18T01:09:42;99463.81;;;17.45;80.70
18275;BME280;19470;49.322;7.218;2022-07-18T01:12:09;99464.63;;;17.30;81.78
18275;BME280;19470;49.322;7.218;2022-07-18T01:14:36;99470.25;;;17.44;81.76
18275;BME280;19470;49.322;7.218;2022-07-18T01:17:11;99465.47;;;17.56;81.56
18275;BME280;19470;49.322;7.218;2022-07-18T01:19:38;99454.47;;;17.48;81.19
18275;BME280;19470;49.322;7.218;2022-07-18T01:22:06;99458.75;;;17.33;81.48
18275;BME280;19470;49.322;7.218;2022-07-18T01:24:33;99462.72;;;17.05;83.54
18275;BME280;19470;49.322;7.218;2022-07-18T01:27:00;99463.00;;;17.09;82.11
18275;BME280;19470;49.322;7.218;2022-07-18T01:29:27;99457.84;;;16.82;83.32
18275;BME280;19470;49.322;7.218;2022-07-18T01:31:53;99466.66;;;16.77;83.40
18275;BME280;19470;49.322;7.218;2022-07-18T01:34:20;99466.75;;;17.08;83.60
18275;BME280;19470;49.322;7.218;2022-07-18T01:36:47;99464.63;;;17.30;82.48
18275;BME280;19470;49.322;7.218;2022-07-18T01:39:15;99461.69;;;17.47;82.72
18275;BME280;19470;49.322;7.218;2022-07-18T01:41:42;99464.09;;;17.44;82.33
18275;BME280;19470;49.322;7.218;2022-07-18T01:44:08;99456.88;;;17.19;83.21
18275;BME280;19470;49.322;7.218;2022-07-18T01:46:34;99458.16;;;16.96;83.60
18275;BME280;19470;49.322;7.218;2022-07-18T01:49:01;99458.13;;;16.85;83.98
18275;BME280;19470;49.322;7.218;2022-07-18T01:51:27;99457.88;;;16.97;83.27
18275;BME280;19470;49.322;7.218;2022-07-18T01:53:57;99454.19;;;17.14;82.80
18275;BME280;19470;49.322;7.218;2022-07-18T01:56:27;99454.97;;;17.04;83.77
18275;BME280;19470;49.322;7.218;2022-07-18T01:58:54;99453.91;;;17.10;83.92
18275;BME280;19470;49.322;7.218;2022-07-18T02:01:21;99449.03;;;16.86;85.10
18275;BME280;19470;49.322;7.218;2022-07-18T02:03:48;99451.63;;;16.71;86.30
18275;BME280;19470;49.322;7.218;2022-07-18T02:06:14;99452.25;;;16.94;85.74
18275;BME280;19470;49.322;7.218;2022-07-18T02:08:41;99452.19;;;16.73;86.44
18275;BME280;19470;49.322;7.218;2022-07-18T02:11:07;99454.91;;;16.83;86.30
18275;BME280;19470;49.322;7.218;2022-07-18T02:13:35;99448.41;;;16.69;86.41
18275;BME280;19470;49.322;7.218;2022-07-18T02:16:02;99452.13;;;16.63;87.24
18275;BME280;19470;49.322;7.218;2022-07-18T02:18:28;99447.97;;;16.93;86.27
18275;BME280;19470;49.322;7.218;2022-07-18T02:20:57;99445.56;;;16.86;86.46
18275;BME280;19470;49.322;7.218;2022-07-18T02:23:23;99442.09;;;16.85;86.57
18275;BME280;19470;49.322;7.218;2022-07-18T02:25:50;99433.91;;;16.50;86.60
18275;BME280;19470;49.322;7.218;2022-07-18T02:28:16;99442.50;;;16.52;86.81
18275;BME280;19470;49.322;7.218;2022-07-18T02:30:44;99451.50;;;16.41;87.38
18275;BME280;19470;49.322;7.218;2022-07-18T02:33:11;99442.63;;;16.25;88.56
18275;BME280;19470;49.322;7.218;2022-07-18T02:35:37;99447.72;;;16.31;88.21
18275;BME280;19470;49.322;7.218;2022-07-18T02:38:04;99441.06;;;16.34;88.24
18275;BME280;19470;49.322;7.218;2022-07-18T02:40:30;99442.50;;;16.52;87.41
18275;BME280;19470;49.322;7.218;2022-07-18T02:42:57;99448.31;;;16.44;88.79
18275;BME280;19470;49.322;7.218;2022-07-18T02:45:23;99445.59;;;16.33;89.80
18275;BME280;19470;49.322;7.218;2022-07-18T02:47:51;99451.00;;;16.44;88.93
18275;BME280;19470;49.322;7.218;2022-07-18T02:50:18;99452.16;;;16.68;87.43
18275;BME280;19470;49.322;7.218;2022-07-18T02:52:45;99443.84;;;16.59;87.06
18275;BME280;19470;49.322;7.218;2022-07-18T02:55:13;99445.13;;;16.47;88.25
18275;BME280;19470;49.322;7.218;2022-07-18T02:57:40;99459.00;;;16.39;88.52
18275;BME280;19470;49.322;7.218;2022-07-18T03:00:09;99453.03;;;16.26;89.37
18275;BME280;19470;49.322;7.218;2022-07-18T03:02:37;99449.25;;;16.17;89.37
18275;BME280;19470;49.322;7.218;2022-07-18T03:05:06;99449.53;;;16.16;89.48
18275;BME280;19470;49.322;7.218;2022-07-18T03:07:33;99450.56;;;16.09;90.06
18275;BME280;19470;49.322;7.218;2022-07-18T03:10:00;99448.19;;;16.18;89.57
18275;BME280;19470;49.322;7.218;2022-07-18T03:12:27;99447.97;;;16.25;88.89
18275;BME280;19470;49.322;7.218;2022-07-18T03:14:53;99440.25;;;16.28;88.47
18275;BME280;19470;49.322;7.218;2022-07-18T03:17:20;99444.47;;;16.19;87.88
18275;BME280;19470;49.322;7.218;2022-07-18T03:19:46;99447.56;;;16.01;89.69
18275;BME280;19470;49.322;7.218;2022-07-18T03:22:14;99445.31;;;15.82;91.08
18275;BME280;19470;49.322;7.218;2022-07-18T03:24:41;99445.44;;;16.03;89.83
18275;BME280;19470;49.322;7.218;2022-07-18T03:27:07;99449.81;;;16.19;89.26
18275;BME280;19470;49.322;7.218;2022-07-18T03:29:34;99445.50;;;16.18;88.65
18275;BME280;19470;49.322;7.218;2022-07-18T03:32:00;99446.06;;;16.15;89.03
18275;BME280;19470;49.322;7.218;2022-07-18T03:34:27;99445.75;;;16.12;89.85
18275;BME280;19470;49.322;7.218;2022-07-18T03:36:53;99447.31;;;16.02;89.77
18275;BME280;19470;49.322;7.218;2022-07-18T03:39:21;99447.50;;;15.91;90.32
18275;BME280;19470;49.322;7.218;2022-07-18T03:41:48;99451.22;;;15.90;90.23
18275;BME280;19470;49.322;7.218;2022-07-18T03:44:16;99453.47;;;16.08;90.18
18275;BME280;19470;49.322;7.218;2022-07-18T03:46:43;99456.66;;;16.00;90.30
18275;BME280;19470;49.322;7.218;2022-07-18T03:49:10;99458.41;;;16.31;89.01
18275;BME280;19470;49.322;7.218;2022-07-18T03:51:36;99464.31;;;16.33;88.17
18275;BME280;19470;49.322;7.218;2022-07-18T03:54:02;99460.00;;;16.32;87.79
18275;BME280;19470;49.322;7.218;2022-07-18T03:56:30;99458.75;;;15.98;89.35
18275;BME280;19470;49.322;7.218;2022-07-18T03:58:57;99469.44;;;15.98;87.57
18275;BME280;19470;49.322;7.218;2022-07-18T04:01:23;99469.44;;;15.98;87.92
18275;BME280;19470;49.322;7.218;2022-07-18T04:03:50;99463.44;;;15.80;88.59
18275;BME280;19470;49.322;7.218;2022-07-18T04:06:17;99465.69;;;15.94;88.29
18275;BME280;19470;49.322;7.218;2022-07-18T04:08:43;99469.53;;;16.13;88.00
18275;BME280;19470;49.322;7.218;2022-07-18T04:11:10;99464.69;;;16.05;90.03
18275;BME280;19470;49.322;7.218;2022-07-18T04:13:38;99461.25;;;16.09;89.97
18275;BME280;19470;49.322;7.218;2022-07-18T04:16:05;99463.03;;;15.99;91.03
18275;BME280;19470;49.322;7.218;2022-07-18T04:18:31;99460.66;;;16.02;90.51
18275;BME280;19470;49.322;7.218;2022-07-18T04:20:57;99462.13;;;15.78;92.18
18275;BME280;19470;49.322;7.218;2022-07-18T04:23:24;99471.69;;;15.74;92.77
18275;BME280;19470;49.322;7.218;2022-07-18T04:25:50;99469.88;;;15.84;92.87
18275;BME280;19470;49.322;7.218;2022-07-18T04:28:17;99468.88;;;15.91;92.03
18275;BME280;19470;49.322;7.218;2022-07-18T04:30:45;99472.97;;;16.08;91.76
18275;BME280;19470;49.322;7.218;2022-07-18T04:33:12;99473.78;;;16.09;91.81
18275;BME280;19470;49.322;7.218;2022-07-18T04:35:39;99461.50;;;16.08;92.98
18275;BME280;19470;49.322;7.218;2022-07-18T04:38:08;99458.88;;;16.18;92.44
18275;BME280;19470;49.322;7.218;2022-07-18T04:40:35;99452.00;;;16.32;90.50
18275;BME280;19470;49.322;7.218;2022-07-18T04:43:02;99464.34;;;16.39;88.41
18275;BME280;19470;49.322;7.218;2022-07-18T04:45:29;99456.97;;;16.14;88.03
18275;BME280;19470;49.322;7.218;2022-07-18T04:47:57;99443.13;;;16.22;88.43
18275;BME280;19470;49.322;7.218;2022-07-18T04:50:24;99453.59;;;16.28;89.82
18275;BME280;19470;49.322;7.218;2022-07-18T04:52:51;99449.31;;;16.32;90.37
18275;BME280;19470;49.322;7.218;2022-07-18T04:55:19;99450.19;;;16.38;91.45
18275;BME280;19470;49.322;7.218;2022-07-18T04:57:46;99444.06;;;16.43;91.53
18275;BME280;19470;49.322;7.218;2022-07-18T05:00:15;99447.84;;;16.52;92.27
18275;BME280;19470;49.322;7.218;2022-07-18T05:02:43;99447.84;;;16.57;91.39
18275;BME280;19470;49.322;7.218;2022-07-18T05:05:12;99453.28;;;16.77;91.10
18275;BME280;19470;49.322;7.218;2022-07-18T05:07:40;99449.28;;;16.80;89.89
18275;BME280;19470;49.322;7.218;2022-07-18T05:10:08;99450.91;;;16.86;88.81
18275;BME280;19470;49.322;7.218;2022-07-18T05:12:36;99458.66;;;16.93;89.26
18275;BME280;19470;49.322;7.218;2022-07-18T05:15:05;99462.44;;;17.12;88.51
18275;BME280;19470;49.322;7.218;2022-07-18T05:17:32;99462.50;;;17.27;88.52
18275;BME280;19470;49.322;7.218;2022-07-18T05:19:58;99459.81;;;17.48;87.48
18275;BME280;19470;49.322;7.218;2022-07-18T05:22:26;99461.69;;;17.62;88.52
18275;BME280;19470;49.322;7.218;2022-07-18T05:24:53;99457.97;;;17.79;88.25
18275;BME280;19470;49.322;7.218;2022-07-18T05:27:19;99468.38;;;18.06;86.37
18275;BME280;19470;49.322;7.218;2022-07-18T05:29:46;99465.69;;;18.16;85.58
18275;BME280;19470;49.322;7.218;2022-07-18T05:32:12;99468.38;;;18.16;85.63
18275;BME280;19470;49.322;7.218;2022-07-18T05:34:39;99466.09;;;18.49;83.54
18275;BME280;19470;49.322;7.218;2022-07-18T05:37:05;99476.78;;;18.64;82.36
18275;BME280;19470;49.322;7.218;2022-07-18T05:39:33;99477.22;;;18.86;79.64
18275;BME280;19470;49.322;7.218;2022-07-18T05:42:00;99473.63;;;19.11;75.28
18275;BME280;19470;49.322;7.218;2022-07-18T05:44:27;99471.63;;;19.27;73.07
18275;BME280;19470;49.322;7.218;2022-07-18T05:46:53;99459.16;;;19.41;71.87
18275;BME280;19470;49.322;7.218;2022-07-18T05:49:20;99459.88;;;19.52;71.12
18275;BME280;19470;49.322;7.218;2022-07-18T05:51:46;99463.78;;;19.70;71.70
18275;BME280;19470;49.322;7.218;2022-07-18T05:54:13;99465.63;;;20.04;70.70
18275;BME280;19470;49.322;7.218;2022-07-18T05:56:45;99456.50;;;20.05;70.83
18275;BME280;19470;49.322;7.218;2022-07-18T05:59:12;99455.09;;;20.31;70.75
18275;BME280;19470;49.322;7.218;2022-07-18T06:01:39;99452.66;;;20.59;70.54
18275;BME280;19470;49.322;7.218;2022-07-18T06:04:05;99447.22;;;20.64;71.25
18275;BME280;19470;49.322;7.218;2022-07-18T06:06:32;99457.66;;;20.47;71.67
18275;BME280;19470;49.322;7.218;2022-07-18T06:08:58;99449.19;;;20.77;69.67
18275;BME280;19470;49.322;7.218;2022-07-18T06:11:25;99442.38;;;21.04;68.45
18275;BME280;19470;49.322;7.218;2022-07-18T06:13:53;99442.56;;;21.26;65.03
18275;BME280;19470;49.322;7.218;2022-07-18T06:16:19;99445.56;;;21.06;67.45
18275;BME280;19470;49.322;7.218;2022-07-18T06:18:46;99447.84;;;21.36;66.91
18275;BME280;19470;49.322;7.218;2022-07-18T06:21:12;99445.88;;;21.88;63.88
18275;BME280;19470;49.322;7.218;2022-07-18T06:23:39;99440.03;;;22.14;62.83
18275;BME280;19470;49.322;7.218;2022-07-18T06:26:05;99437.63;;;22.26;62.97
18275;BME280;19470;49.322;7.218;2022-07-18T06:28:32;99438.91;;;22.56;61.24
18275;BME280;19470;49.322;7.218;2022-07-18T06:31:00;99436.66;;;22.72;59.98
18275;BME280;19470;49.322;7.218;2022-07-18T06:33:27;99430.06;;;22.92;59.54
18275;BME280;19470;49.322;7.218;2022-07-18T06:35:53;99433.72;;;23.32;58.86
18275;BME280;19470;49.322;7.218;2022-07-18T06:38:20;99437.00;;;23.52;57.06
18275;BME280;19470;49.322;7.218;2022-07-18T06:40:46;99431.72;;;23.46;57.82
18275;BME280;19470;49.322;7.218;2022-07-18T06:43:13;99424.13;;;23.49;58.04
18275;BME280;19470;49.322;7.218;2022-07-18T06:45:44;99423.69;;;23.55;57.69
18275;BME280;19470;49.322;7.218;2022-07-18T06:48:12;99420.94;;;24.09;55.93
18275;BME280;19470;49.322;7.218;2022-07-18T06:50:39;99419.31;;;23.99;54.74
18275;BME280;19470;49.322;7.218;2022-07-18T06:53:06;99422.09;;;24.16;55.77
18275;BME280;19470;49.322;7.218;2022-07-18T06:55:32;99421.59;;;24.63;54.66
18275;BME280;19470;49.322;7.218;2022-07-18T06:57:59;99420.69;;;24.85;54.09
18275;BME280;19470;49.322;7.218;2022-07-18T07:00:25;99417.31;;;24.79;54.97
18275;BME280;19470;49.322;7.218;2022-07-18T07:02:52;99415.28;;;25.19;53.24
18275;BME280;19470;49.322;7.218;2022-07-18T07:05:21;99422.25;;;25.38;50.90
18275;BME280;19470;49.322;7.218;2022-07-18T07:07:48;99419.38;;;25.52;51.27
18275;BME280;19470;49.322;7.218;2022-07-18T07:10:16;99421.72;;;25.79;49.38
18275;BME280;19470;49.322;7.218;2022-07-18T07:12:44;99418.84;;;25.67;49.72
18275;BME280;19470;49.322;7.218;2022-07-18T07:15:12;99425.66;;;25.90;49.73
18275;BME280;19470;49.322;7.218;2022-07-18T07:17:39;99412.03;;;26.08;46.62
18275;BME280;19470;49.322;7.218;2022-07-18T07:20:07;99411.47;;;26.23;47.85
18275;BME280;19470;49.322;7.218;2022-07-18T07:22:42;99419.50;;;26.49;47.59
18275;BME280;19470;49.322;7.218;2022-07-18T07:25:09;99412.50;;;26.69;46.55
18275;BME280;19470;49.322;7.218;2022-07-18T07:27:35;99413.88;;;26.75;46.40
18275;BME280;19470;49.322;7.218;2022-07-18T07:30:02;99416.47;;;26.92;44.26
18275;BME280;19470;49.322;7.218;2022-07-18T07:32:33;99415.88;;;26.87;44.13
18275;BME280;19470;49.322;7.218;2022-07-18T07:35:00;99411.47;;;27.36;44.02
18275;BME280;19470;49.322;7.218;2022-07-18T07:37:26;99403.31;;;27.36;42.52
18275;BME280;19470;49.322;7.218;2022-07-18T07:39:54;99403.88;;;27.42;42.06
18275;BME280;19470;49.322;7.218;2022-07-18T07:42:20;99404.13;;;28.07;41.95
18275;BME280;19470;49.322;7.218;2022-07-18T07:44:47;99394.81;;;28.08;41.92
18275;BME280;19470;49.322;7.218;2022-07-18T07:47:13;99401.41;;;28.43;40.58
18275;BME280;19470;49.322;7.218;2022-07-18T07:49:40;99398.19;;;28.53;41.67
18275;BME280;19470;49.322;7.218;2022-07-18T07:52:06;99399.19;;;29.14;39.70
18275;BME280;19470;49.322;7.218;2022-07-18T07:54:33;99401.53;;;28.87;39.02
18275;BME280;19470;49.322;7.218;2022-07-18T07:57:01;99403.06;;;29.13;38.46
18275;BME280;19470;49.322;7.218;2022-07-18T07:59:27;99404.69;;;29.89;37.91
18275;BME280;19470;49.322;7.218;2022-07-18T08:01:55;99396.84;;;28.88;38.21
18275;BME280;19470;49.322;7.218;2022-07-18T08:04:21;99395.25;;;29.71;37.04
18275;BME280;19470;49.322;7.218;2022-07-18T08:06:48;99392.34;;;29.79;35.76
18275;BME280;19470;49.322;7.218;2022-07-18T08:09:14;99396.34;;;29.10;37.15
18275;BME280;19470;49.322;7.218;2022-07-18T08:11:41;99398.13;;;30.10;36.46
18275;BME280;19470;49.322;7.218;2022-07-18T08:14:09;99391.19;;;29.65;37.06
18275;BME280;19470;49.322;7.218;2022-07-18T08:16:36;99390.59;;;30.54;36.09
18275;BME280;19470;49.322;7.218;2022-07-18T08:19:02;99385.94;;;30.74;34.57
18275;BME280;19470;49.322;7.218;2022-07-18T08:21:29;99385.78;;;31.25;35.43
18275;BME280;19470;49.322;7.218;2022-07-18T08:23:55;99381.56;;;31.96;33.43
18275;BME280;19470;49.322;7.218;2022-07-18T08:26:22;99383.28;;;32.04;33.90
18275;BME280;19470;49.322;7.218;2022-07-18T08:28:49;99377.00;;;32.61;33.42
18275;BME280;19470;49.322;7.218;2022-07-18T08:31:17;99370.72;;;32.56;32.95
18275;BME280;19470;49.322;7.218;2022-07-18T08:33:44;99373.44;;;32.30;33.39
18275;BME280;19470;49.322;7.218;2022-07-18T08:36:10;99381.88;;;31.91;32.72
18275;BME280;19470;49.322;7.218;2022-07-18T08:38:37;99384.63;;;32.18;33.11
18275;BME280;19470;49.322;7.218;2022-07-18T08:41:04;99375.53;;;32.67;32.95
18275;BME280;19470;49.322;7.218;2022-07-18T08:43:30;99381.41;;;32.95;32.60
18275;BME280;19470;49.322;7.218;2022-07-18T08:46:05;99372.38;;;33.32;31.55
18275;BME280;19470;49.322;7.218;2022-07-18T08:48:33;99374.16;;;33.54;32.32
18275;BME280;19470;49.322;7.218;2022-07-18T08:51:00;99365.41;;;33.86;31.32
18275;BME280;19470;49.322;7.218;2022-07-18T08:53:27;99366.72;;;33.99;31.61
18275;BME280;19470;49.322;7.218;2022-07-18T08:55:54;99365.00;;;33.84;31.34
18275;BME280;19470;49.322;7.218;2022-07-18T08:58:20;99364.41;;;34.08;29.37
18275;BME280;19470;49.322;7.218;2022-07-18T09:00:48;99369.38;;;33.92;28.84
18275;BME280;19470;49.322;7.218;2022-07-18T09:03:15;99369.66;;;34.31;28.72
18275;BME280;19470;49.322;7.218;2022-07-18T09:05:43;99371.00;;;34.55;28.55
18275;BME280;19470;49.322;7.218;2022-07-18T09:08:11;99365.56;;;34.77;28.16
18275;BME280;19470;49.322;7.218;2022-07-18T09:10:51;99365.00;;;34.43;28.86
18275;BME280;19470;49.322;7.218;2022-07-18T09:13:19;99365.22;;;34.82;28.63
18275;BME280;19470;49.322;7.218;2022-07-18T09:15:58;99365.13;;;34.64;29.39
18275;BME280;19470;49.322;7.218;2022-07-18T09:18:28;99365.94;;;34.65;27.91
18275;BME280;19470;49.322;7.218;2022-07-18T09:21:00;99368.47;;;35.05;28.35
18275;BME280;19470;49.322;7.218;2022-07-18T09:23:29;99359.06;;;35.42;26.76
18275;BME280;19470;49.322;7.218;2022-07-18T09:25:56;99358.22;;;36.31;26.62
18275;BME280;19470;49.322;7.218;2022-07-18T09:28:25;99348.56;;;34.46;28.86
18275;BME280;19470;49.322;7.218;2022-07-18T09:30:52;99347.66;;;35.44;26.74
18275;BME280;19470;49.322;7.218;2022-07-18T09:33:19;99349.25;;;36.02;26.35
18275;BME280;19470;49.322;7.218;2022-07-18T09:35:48;99357.00;;;36.50;26.24
18275;BME280;19470;49.322;7.218;2022-07-18T09:38:17;99359.84;;;36.25;25.84
18275;BME280;19470;49.322;7.218;2022-07-18T09:40:47;99357.38;;;36.63;26.34
18275;BME280;19470;49.322;7.218;2022-07-18T09:43:15;99350.44;;;36.04;26.75
18275;BME280;19470;49.322;7.218;2022-07-18T09:45:44;99354.28;;;36.32;26.99
18275;BME280;19470;49.322;7.218;2022-07-18T09:48:13;99357.44;;;36.34;27.29
18275;BME280;19470;49.322;7.218;2022-07-18T09:50:42;99356.72;;;37.18;24.87
18275;BME280;19470;49.322;7.218;2022-07-18T09:53:13;99353.09;;;36.40;25.41
18275;BME280;19470;49.322;7.218;2022-07-18T09:55:48;99340.88;;;36.52;25.36
18275;BME280;19470;49.322;7.218;2022-07-18T09:58:17;99338.78;;;37.40;24.61
18275;BME280;19470;49.322;7.218;2022-07-18T10:00:44;99346.72;;;37.87;23.66
18275;BME280;19470;49.322;7.218;2022-07-18T10:03:11;99342.59;;;37.60;24.58
18275;BME280;19470;49.322;7.218;2022-07-18T10:05:39;99343.78;;;38.04;23.27
18275;BME280;19470;49.322;7.218;2022-07-18T10:08:09;99340.09;;;38.15;23.35
18275;BME280;19470;49.322;7.218;2022-07-18T10:10:38;99329.78;;;37.77;23.56
18275;BME280;19470;49.322;7.218;2022-07-18T10:13:08;99334.38;;;37.98;24.65
18275;BME280;19470;49.322;7.218;2022-07-18T10:15:35;99334.44;;;38.63;23.65
18275;BME280;19470;49.322;7.218;2022-07-18T10:18:04;99330.34;;;35.65;26.21
18275;BME280;19470;49.322;7.218;2022-07-18T10:20:34;99330.53;;;36.67;25.64
18275;BME280;19470;49.322;7.218;2022-07-18T10:23:07;99318.31;;;36.68;24.93
18275;BME280;19470;49.322;7.218;2022-07-18T10:25:35;99314.56;;;38.03;23.63
18275;BME280;19470;49.322;7.218;2022-07-18T10:28:07;99310.53;;;38.12;23.53
18275;BME280;19470;49.322;7.218;2022-07-18T10:30:36;99318.59;;;38.33;23.73
18275;BME280;19470;49.322;7.218;2022-07-18T10:33:04;99321.25;;;39.52;21.48
18275;BME280;19470;49.322;7.218;2022-07-18T10:35:59;99317.31;;;39.76;22.18
18275;BME280;19470;49.322;7.218;2022-07-18T10:38:26;99324.72;;;38.48;22.75
18275;BME280;19470;49.322;7.218;2022-07-18T10:41:11;99321.88;;;39.13;21.51
18275;BME280;19470;49.322;7.218;2022-07-18T10:43:43;99324.91;;;40.16;21.76
18275;BME280;19470;49.322;7.218;2022-07-18T10:46:11;99324.59;;;38.89;21.65
18275;BME280;19470;49.322;7.218;2022-07-18T10:48:54;99323.50;;;40.47;21.60
18275;BME280;19470;49.322;7.218;2022-07-18T10:51:29;99325.25;;;39.51;21.04
18275;BME280;19470;49.322;7.218;2022-07-18T10:54:10;99326.22;;;40.87;19.82
18275;BME280;19470;49.322;7.218;2022-07-18T10:57:06;99325.78;;;40.52;19.69
18275;BME280;19470;49.322;7.218;2022-07-18T10:59:38;99327.66;;;38.33;22.31
18275;BME280;19470;49.322;7.218;2022-07-18T11:02:06;99334.63;;;39.57;20.06
18275;BME280;19470;49.322;7.218;2022-07-18T11:04:39;99322.97;;;41.57;19.78
18275;BME280;19470;49.322;7.218;2022-07-18T11:07:09;99309.19;;;42.41;18.71
18275;BME280;19470;49.322;7.218;2022-07-18T11:09:38;99310.50;;;42.24;19.43
18275;BME280;19470;49.322;7.218;2022-07-18T11:12:18;99302.69;;;42.86;19.40
18275;BME280;19470;49.322;7.218;2022-07-18T11:15:05;99301.94;;;42.31;18.69
18275;BME280;19470;49.322;7.218;2022-07-18T11:17:54;99302.81;;;41.21;20.14
18275;BME280;19470;49.322;7.218;2022-07-18T11:20:33;99299.44;;;41.91;19.11
18275;BME280;19470;49.322;7.218;2022-07-18T11:23:02;99303.00;;;43.26;18.97
18275;BME280;19470;49.322;7.218;2022-07-18T11:25:29;99306.00;;;41.84;18.98
18275;BME280;19470;49.322;7.218;2022-07-18T11:27:56;99290.09;;;41.85;19.20
18275;BME280;19470;49.322;7.218;2022-07-18T11:30:24;99292.03;;;41.06;20.97
18275;BME280;19470;49.322;7.218;2022-07-18T11:32:51;99276.00;;;42.47;19.49
18275;BME280;19470;49.322;7.218;2022-07-18T11:35:22;99286.25;;;42.37;20.24
18275;BME280;19470;49.322;7.218;2022-07-18T11:37:49;99287.09;;;42.76;19.15
18275;BME280;19470;49.322;7.218;2022-07-18T11:40:16;99276.78;;;42.34;19.57
18275;BME280;19470;49.322;7.218;2022-07-18T11:42:43;99275.78;;;42.41;18.81
18275;BME280;19470;49.322;7.218;2022-07-18T11:45:11;99278.81;;;40.22;21.20
18275;BME280;19470;49.322;7.218;2022-07-18T11:47:45;99273.28;;;38.81;21.97
18275;BME280;19470;49.322;7.218;2022-07-18T11:50:12;99272.53;;;39.54;21.73
18275;BME280;19470;49.322;7.218;2022-07-18T11:52:39;99258.66;;;40.74;20.84
18275;BME280;19470;49.322;7.218;2022-07-18T11:55:06;99262.78;;;42.76;19.14
18275;BME280;19470;49.322;7.218;2022-07-18T11:57:33;99261.34;;;42.72;19.45
18275;BME280;19470;49.322;7.218;2022-07-18T12:06:38;99249.56;;;42.13;19.04
18275;BME280;19470;49.322;7.218;2022-07-18T12:09:05;99250.53;;;41.32;20.24
18275;BME280;19470;49.322;7.218;2022-07-18T12:11:33;99244.81;;;40.90;20.71
18275;BME280;19470;49.322;7.218;2022-07-18T12:14:01;99239.94;;;42.56;20.10
18275;BME280;19470;49.322;7.218;2022-07-18T12:16:32;99252.88;;;40.84;20.54
18275;BME280;19470;49.322;7.218;2022-07-18T12:19:02;99247.06;;;41.28;20.07
18275;BME280;19470;49.322;7.218;2022-07-18T12:21:45;99241.84;;;42.04;20.58
18275;BME280;19470;49.322;7.218;2022-07-18T12:24:28;99236.00;;;41.86;20.16
18275;BME280;19470;49.322;7.218;2022-07-18T12:27:18;99242.63;;;40.98;20.47
18275;BME280;19470;49.322;7.218;2022-07-18T12:29:59;99244.56;;;41.79;19.63
18275;BME280;19470;49.322;7.218;2022-07-18T12:32:29;99248.28;;;41.10;20.33
18275;BME280;19470;49.322;7.218;2022-07-18T12:34:57;99249.31;;;41.49;19.93
18275;BME280;19470;49.322;7.218;2022-07-18T12:37:28;99237.78;;;41.80;19.61
18275;BME280;19470;49.322;7.218;2022-07-18T12:39:58;99245.25;;;41.67;19.55
18275;BME280;19470;49.322;7.218;2022-07-18T12:42:30;99241.44;;;42.19;19.00
18275;BME280;19470;49.322;7.218;2022-07-18T12:44:57;99236.47;;;41.84;19.45
18275;BME280;19470;49.322;7.218;2022-07-18T12:47:24;99226.16;;;41.98;19.57
18275;BME280;19470;49.322;7.218;2022-07-18T12:49:50;99232.69;;;38.98;21.95
18275;BME280;19470;49.322;7.218;2022-07-18T12:52:17;99234.44;;;38.88;23.23
18275;BME280;19470;49.322;7.218;2022-07-18T12:54:45;99221.66;;;38.94;22.35
18275;BME280;19470;49.322;7.218;2022-07-18T12:57:11;99227.97;;;39.22;22.14
18275;BME280;19470;49.322;7.218;2022-07-18T12:59:38;99229.97;;;38.06;23.13
18275;BME280;19470;49.322;7.218;2022-07-18T13:02:04;99229.59;;;38.38;22.81
18275;BME280;19470;49.322;7.218;2022-07-18T13:04:31;99219.53;;;38.21;22.92
18275;BME280;19470;49.322;7.218;2022-07-18T13:06:58;99221.31;;;37.21;23.99
18275;BME280;19470;49.322;7.218;2022-07-18T13:09:24;99208.81;;;37.92;23.09
18275;BME280;19470;49.322;7.218;2022-07-18T13:11:52;99217.03;;;37.62;23.08